< < Back
Terminal Aerodrome Forecast


Current Version              Previous Versions:   1  2  3  4  5  6  7  8  9  

Terminal Aerodrome Forecast

979
FTUS42 KILM 190500
TAFILM
TAF
KILM 190537Z 1906/2006 34009KT P6SM SCT060 BKN090
     FM191300 36012G19KT P6SM SKC
     FM191800 35008KT P6SM SKC
     FM192300 VRB03KT P6SM SKC=

Latest METAR

973
SAUS70 KWBC 200800 RRJ
MTRILM
METAR KILM 200753Z 00000KT 10SM CLR 07/06 A3014 RMK AO2 SLP207
T00720061


USA.gov is the U.S. government's official web portal to all federal, state and local government web resources and services.